createdAt,value
2019-02-23T00:01:25.062Z,0.32
2019-02-23T00:03:59.117Z,0.36
2019-02-23T00:09:13.352Z,0.21
2019-02-23T00:11:48.444Z,0.26
2019-02-23T00:14:22.379Z,0.51
2019-02-23T00:16:56.521Z,1.01
2019-02-23T00:19:29.890Z,1.88
2019-02-23T00:22:04.171Z,2.42
2019-02-23T00:24:39.474Z,2.57
2019-02-23T00:27:17.980Z,2.55
2019-02-23T00:30:00.037Z,2.19
2019-02-23T00:32:34.727Z,2.19
2019-02-23T00:35:09.456Z,2.69
2019-02-23T00:37:46.518Z,2.78
2019-02-23T00:40:21.212Z,2.78
2019-02-23T00:43:00.826Z,2.62
2019-02-23T00:45:46.292Z,2.40
2019-02-23T00:48:20.695Z,2.25
2019-02-23T00:50:56.719Z,2.36
2019-02-23T00:53:32.236Z,2.60
2019-02-23T00:56:05.729Z,2.91
2019-02-23T00:58:39.575Z,2.93
2019-02-23T01:01:13.935Z,2.82
2019-02-23T01:03:49.063Z,2.73
2019-02-23T01:06:23.659Z,2.70
2019-02-23T01:08:57.570Z,3.13
2019-02-23T01:11:32.067Z,3.05
2019-02-23T01:14:06.997Z,3.37
2019-02-23T01:16:42.003Z,3.53
2019-02-23T01:19:18.060Z,3.69
2019-02-23T01:21:51.927Z,4.01
2019-02-23T01:24:25.869Z,4.29
2019-02-23T01:27:02.207Z,4.87
2019-02-23T01:29:42.224Z,5.10
2019-02-23T01:32:16.865Z,5.94
2019-02-23T01:34:52.056Z,6.31
2019-02-23T01:37:26.857Z,6.35
2019-02-23T01:40:01.908Z,6.59
2019-02-23T01:42:35.754Z,6.47
2019-02-23T01:45:10.375Z,6.57
2019-02-23T01:47:44.644Z,6.14
2019-02-23T01:50:25.492Z,6.08
2019-02-23T01:53:00.812Z,6.06
2019-02-23T01:55:35.711Z,6.35
2019-02-23T01:58:10.663Z,6.16
2019-02-23T02:00:46.905Z,6.05
2019-02-23T02:03:22.967Z,6.43
2019-02-23T02:05:58.765Z,6.67
2019-02-23T02:08:33.569Z,7.00
2019-02-23T02:11:11.595Z,6.96
2019-02-23T02:13:48.422Z,7.00
2019-02-23T02:16:23.115Z,7.14
2019-02-23T02:18:58.455Z,7.17
2019-02-23T02:21:33.164Z,7.42
2019-02-23T02:24:07.644Z,7.44
2019-02-23T02:26:43.955Z,7.83
2019-02-23T02:29:17.808Z,8.52
2019-02-23T02:31:51.887Z,8.41
2019-02-23T02:34:26.068Z,8.84
2019-02-23T02:36:59.914Z,9.04
2019-02-23T02:39:34.115Z,8.51
2019-02-23T02:42:09.328Z,8.59
2019-02-23T02:44:44.023Z,9.01
2019-02-23T02:47:17.878Z,9.34
2019-02-23T02:49:51.976Z,9.00
2019-02-23T02:52:28.223Z,9.01
2019-02-23T02:55:02.407Z,9.11
2019-02-23T02:57:38.135Z,8.92
2019-02-23T03:00:14.111Z,9.03
2019-02-23T03:02:50.617Z,9.33
2019-02-23T03:05:24.516Z,9.31
2019-02-23T03:07:58.999Z,9.23
2019-02-23T03:10:34.175Z,9.67
2019-02-23T03:13:08.627Z,9.52
2019-02-23T03:15:44.611Z,9.36
2019-02-23T03:18:19.776Z,9.01
2019-02-23T03:20:53.936Z,8.86
2019-02-23T03:23:28.622Z,8.98
2019-02-23T03:26:05.290Z,9.18
2019-02-23T03:28:40.196Z,9.72
2019-02-23T03:31:14.927Z,9.89
2019-02-23T03:33:52.185Z,9.63
2019-02-23T03:36:30.831Z,9.81
2019-02-23T03:39:12.303Z,10.24
2019-02-23T03:41:52.772Z,10.99
2019-02-23T03:44:29.745Z,11.14
2019-02-23T03:47:05.344Z,10.92
2019-02-23T03:49:39.419Z,10.97
2019-02-23T03:52:13.856Z,10.99
2019-02-23T03:54:49.175Z,10.81
2019-02-23T03:57:25.905Z,10.52
2019-02-23T04:00:02.647Z,10.60
2019-02-23T04:02:37.636Z,10.91
2019-02-23T04:05:12.954Z,10.49
2019-02-23T04:07:48.040Z,10.25
2019-02-23T04:10:22.621Z,10.24
2019-02-23T04:12:57.094Z,10.41
2019-02-23T04:15:35.301Z,10.58
2019-02-23T04:18:11.788Z,10.63
2019-02-23T04:20:48.221Z,10.70
2019-02-23T04:23:22.494Z,10.50
2019-02-23T04:25:58.934Z,10.46
2019-02-23T04:28:33.521Z,10.51
2019-02-23T04:31:07.590Z,10.63
2019-02-23T04:33:42.220Z,10.63
2019-02-23T04:36:16.103Z,10.71
2019-02-23T04:38:50.029Z,10.69
2019-02-23T04:41:23.735Z,10.90
2019-02-23T04:43:58.958Z,10.96
2019-02-23T04:46:32.880Z,10.83
2019-02-23T04:49:06.795Z,10.68
2019-02-23T04:51:41.517Z,10.74
2019-02-23T04:54:15.879Z,10.79
2019-02-23T04:56:50.004Z,10.89
2019-02-23T04:59:24.364Z,10.69
2019-02-23T05:01:58.828Z,10.67
2019-02-23T05:04:33.667Z,10.66
2019-02-23T05:07:08.454Z,10.92
2019-02-23T05:09:42.889Z,10.70
2019-02-23T05:12:19.506Z,10.91
2019-02-23T05:14:54.193Z,10.73
2019-02-23T05:17:28.542Z,11.00
2019-02-23T05:20:04.626Z,11.09
2019-02-23T05:22:39.404Z,11.13
2019-02-23T05:25:13.980Z,11.41
2019-02-23T05:27:49.908Z,11.30
2019-02-23T05:30:25.051Z,11.10
2019-02-23T05:33:01.359Z,11.10
2019-02-23T05:35:35.603Z,11.35
2019-02-23T05:38:09.198Z,11.27
2019-02-23T05:40:44.736Z,11.13
2019-02-23T05:43:19.231Z,11.13
2019-02-23T05:45:54.191Z,10.95
2019-02-23T05:48:27.999Z,11.24
2019-02-23T05:51:01.891Z,11.23
2019-02-23T05:53:36.026Z,10.86
2019-02-23T05:56:13.900Z,10.91
2019-02-23T05:58:46.720Z,10.91
2019-02-23T06:01:22.631Z,11.09
2019-02-23T06:03:57.780Z,10.77
2019-02-23T06:06:32.906Z,10.77
2019-02-23T06:09:09.357Z,10.58
2019-02-23T06:11:44.799Z,10.62
2019-02-23T06:14:26.664Z,10.71
2019-02-23T06:17:03.906Z,10.66
2019-02-23T06:19:38.473Z,10.86
2019-02-23T06:22:14.890Z,10.89
2019-02-23T06:24:52.524Z,10.91
2019-02-23T06:27:30.949Z,10.85
2019-02-23T06:30:06.247Z,10.74
2019-02-23T06:32:43.379Z,10.76
2019-02-23T06:35:18.510Z,10.73
2019-02-23T06:37:53.823Z,10.85
2019-02-23T06:40:32.397Z,10.80
2019-02-23T06:43:09.074Z,10.78
2019-02-23T06:45:46.970Z,10.62
2019-02-23T06:48:21.989Z,10.63
2019-02-23T06:50:58.880Z,10.53
2019-02-23T06:53:34.858Z,10.51
2019-02-23T06:56:09.656Z,10.52
2019-02-23T06:58:44.808Z,10.52
2019-02-23T07:01:21.086Z,10.55
2019-02-23T07:03:57.355Z,10.58
2019-02-23T07:06:32.955Z,10.60
2019-02-23T07:09:07.614Z,10.52
2019-02-23T07:11:43.261Z,10.56
2019-02-23T07:14:18.463Z,10.48
2019-02-23T07:16:53.788Z,10.48
2019-02-23T07:19:30.617Z,10.39
2019-02-23T07:22:15.182Z,10.35
2019-02-23T07:24:46.830Z,10.37
2019-02-23T07:27:21.774Z,10.22
2019-02-23T07:29:58.675Z,10.19
2019-02-23T07:32:33.932Z,10.09
2019-02-23T07:35:08.887Z,10.13
2019-02-23T07:37:42.757Z,10.05
2019-02-23T07:40:19.740Z,10.06
2019-02-23T07:42:55.566Z,10.00
2019-02-23T07:45:29.525Z,9.80
2019-02-23T07:48:04.638Z,9.79
2019-02-23T07:50:40.024Z,9.79
2019-02-23T07:53:15.964Z,9.72
2019-02-23T07:55:57.349Z,9.63
2019-02-23T07:58:33.826Z,9.66
2019-02-23T08:01:09.057Z,9.54
2019-02-23T08:03:44.136Z,9.60
2019-02-23T08:06:21.886Z,9.53
2019-02-23T08:08:57.107Z,9.50
2019-02-23T08:11:32.607Z,9.42
2019-02-23T08:14:07.125Z,9.37
2019-02-23T08:16:42.576Z,9.32
2019-02-23T08:19:17.683Z,9.30
2019-02-23T08:21:51.617Z,9.29
2019-02-23T08:24:26.009Z,9.19
2019-02-23T08:27:01.217Z,9.14
2019-02-23T08:29:35.207Z,9.06
2019-02-23T08:32:08.928Z,9.00
2019-02-23T08:34:43.140Z,8.83
2019-02-23T08:37:17.237Z,8.83
2019-02-23T08:39:51.539Z,8.81
2019-02-23T08:42:25.477Z,8.60
2019-02-23T08:45:07.004Z,8.59
2019-02-23T08:47:41.057Z,8.53
2019-02-23T08:50:19.038Z,8.57
2019-02-23T08:52:53.517Z,8.38
2019-02-23T08:55:27.903Z,8.39
2019-02-23T08:58:02.477Z,8.33
2019-02-23T09:00:38.409Z,8.19
2019-02-23T09:03:13.358Z,8.02
2019-02-23T09:05:47.146Z,8.03
2019-02-23T09:08:23.174Z,8.03
2019-02-23T09:10:57.587Z,8.01
2019-02-23T09:13:32.507Z,7.91
2019-02-23T09:16:06.712Z,7.85
2019-02-23T09:18:41.574Z,7.87
2019-02-23T09:21:15.772Z,7.80
2019-02-23T09:23:50.419Z,7.73
2019-02-23T09:26:25.568Z,7.66
2019-02-23T09:29:01.909Z,7.62
2019-02-23T09:31:36.580Z,7.65
2019-02-23T09:34:10.639Z,7.61
2019-02-23T09:36:46.316Z,7.61
2019-02-23T09:39:20.235Z,7.43
2019-02-23T09:42:07.025Z,7.51
2019-02-23T09:44:32.599Z,7.38
2019-02-23T09:47:06.358Z,7.32
2019-02-23T09:49:40.271Z,7.24
2019-02-23T09:52:18.885Z,7.22
2019-02-23T09:54:52.635Z,7.20
2019-02-23T09:57:26.518Z,6.97
2019-02-23T10:00:01.449Z,6.87
2019-02-23T10:02:34.686Z,6.92
2019-02-23T10:05:09.361Z,6.85
2019-02-23T10:07:43.087Z,6.75
2019-02-23T10:10:16.956Z,6.87
2019-02-23T10:12:50.669Z,6.68
2019-02-23T10:15:24.979Z,6.60
2019-02-23T10:17:59.524Z,6.54
2019-02-23T10:20:45.937Z,6.67
2019-02-23T10:23:24.022Z,6.67
2019-02-23T10:25:58.529Z,6.57
2019-02-23T10:28:36.100Z,6.57
2019-02-23T10:31:11.442Z,6.52
2019-02-23T10:33:51.348Z,6.44
2019-02-23T10:36:26.677Z,6.42
2019-02-23T10:39:08.378Z,6.35
2019-02-23T10:41:44.992Z,6.26
2019-02-23T10:44:21.129Z,6.31
2019-02-23T10:46:56.546Z,6.12
2019-02-23T10:49:31.390Z,6.18
2019-02-23T10:52:06.949Z,6.17
2019-02-23T10:54:41.814Z,6.13
2019-02-23T10:57:17.823Z,6.06
2019-02-23T11:00:01.090Z,6.01
2019-02-23T11:02:39.361Z,6.06
2019-02-23T11:05:15.569Z,6.10
2019-02-23T11:07:55.208Z,6.08
2019-02-23T11:10:30.855Z,6.11
2019-02-23T11:13:10.474Z,5.90
2019-02-23T11:15:47.942Z,6.04
2019-02-23T11:18:24.567Z,6.01
2019-02-23T11:20:59.600Z,5.93
2019-02-23T11:23:43.943Z,5.98
2019-02-23T11:26:11.740Z,5.88
2019-02-23T11:28:49.771Z,5.90
2019-02-23T11:31:22.722Z,5.75
2019-02-23T11:33:57.537Z,5.93
2019-02-23T11:36:31.784Z,5.95
2019-02-23T11:39:06.813Z,5.86
2019-02-23T11:41:44.163Z,5.88
2019-02-23T11:44:19.240Z,5.87
2019-02-23T11:47:01.013Z,5.84
2019-02-23T11:49:31.260Z,5.82
2019-02-23T11:52:08.981Z,5.88
2019-02-23T11:54:44.083Z,5.91
2019-02-23T11:57:18.678Z,5.84
2019-02-23T11:59:54.261Z,5.89
2019-02-23T12:02:52.089Z,5.82
2019-02-23T12:05:24.474Z,5.92
2019-02-23T12:08:01.831Z,5.92
2019-02-23T12:10:38.361Z,5.86
2019-02-23T12:13:16.982Z,5.89
2019-02-23T12:15:54.887Z,5.89
2019-02-23T12:18:35.453Z,5.90
2019-02-23T12:21:14.391Z,5.92
2019-02-23T12:23:53.864Z,6.02
2019-02-23T12:26:31.514Z,5.98
2019-02-23T12:29:13.731Z,5.99
2019-02-23T12:31:50.158Z,6.03
2019-02-23T12:34:34.737Z,6.02
2019-02-23T12:37:10.733Z,5.92
2019-02-23T12:39:46.901Z,5.94
2019-02-23T12:42:28.258Z,5.95
2019-02-23T12:45:09.330Z,5.94
2019-02-23T12:47:45.012Z,5.82
2019-02-23T12:50:29.742Z,5.78
2019-02-23T12:53:06.395Z,5.86
2019-02-23T12:55:41.901Z,5.90
2019-02-23T12:58:19.460Z,5.82
2019-02-23T13:00:57.889Z,5.85
2019-02-23T13:03:33.322Z,5.82
2019-02-23T13:06:10.228Z,5.86
2019-02-23T13:09:21.847Z,5.85
2019-02-23T13:12:05.732Z,5.93
2019-02-23T13:15:01.083Z,5.90
2019-02-23T13:17:52.902Z,5.90
2019-02-23T13:20:50.313Z,5.85
2019-02-23T13:27:10.847Z,5.71
2019-02-23T13:30:17.106Z,5.67
2019-02-23T13:33:13.457Z,5.61
2019-02-23T13:35:57.245Z,5.63
2019-02-23T13:38:56.200Z,5.57
2019-02-23T13:41:32.845Z,5.61
2019-02-23T13:44:19.442Z,5.56
2019-02-23T13:57:14.015Z,5.50
2019-02-23T13:59:56.332Z,5.41
2019-02-23T14:03:10.975Z,5.49
2019-02-23T14:05:55.568Z,5.51
2019-02-23T14:09:00.401Z,5.42
2019-02-23T14:11:57.717Z,5.46
2019-02-23T14:14:42.186Z,5.53
2019-02-23T14:17:24.595Z,5.48
2019-02-23T14:20:19.306Z,5.46
2019-02-23T14:23:10.559Z,5.52
2019-02-23T14:26:05.003Z,5.37
2019-02-23T14:29:32.299Z,5.47
2019-02-23T14:32:15.929Z,5.60
2019-02-23T14:35:16.755Z,5.59
2019-02-23T14:38:05.585Z,5.43
2019-02-23T14:40:50.250Z,5.36
2019-02-23T14:43:56.734Z,5.51
2019-02-23T14:46:50.425Z,5.52
2019-02-23T14:50:03.012Z,5.66
2019-02-23T14:52:58.538Z,5.62
2019-02-23T14:55:57.757Z,5.65
2019-02-23T14:58:50.886Z,5.68
2019-02-23T15:01:34.017Z,5.68
2019-02-23T15:04:41.792Z,5.67
2019-02-23T15:07:22.421Z,5.70
2019-02-23T15:10:16.679Z,5.68
2019-02-23T15:13:33.861Z,5.67
2019-02-23T15:16:53.402Z,5.67
2019-02-23T15:19:55.253Z,5.58
2019-02-23T15:22:38.476Z,5.56
2019-02-23T15:25:45.235Z,5.54
2019-02-23T15:28:59.287Z,5.48
2019-02-23T15:32:00.509Z,5.50
2019-02-23T15:35:11.491Z,5.43
2019-02-23T15:38:07.607Z,5.47
2019-02-23T15:41:13.137Z,5.50
2019-02-23T15:44:10.458Z,5.41
2019-02-23T15:47:11.709Z,5.42
2019-02-23T15:49:46.251Z,5.30
2019-02-23T15:52:21.971Z,5.13
2019-02-23T15:54:56.105Z,4.98
2019-02-23T15:57:31.426Z,4.95
2019-02-23T16:00:05.536Z,4.77
2019-02-23T16:02:39.699Z,4.76
2019-02-23T16:05:16.284Z,4.65
2019-02-23T16:07:50.393Z,4.61
2019-02-23T16:10:26.740Z,4.56
2019-02-23T16:13:02.177Z,4.44
2019-02-23T16:15:40.229Z,4.42
2019-02-23T16:18:14.641Z,4.39
2019-02-23T16:20:52.175Z,4.41
2019-02-23T16:23:34.926Z,4.27
2019-02-23T16:26:06.713Z,4.28
2019-02-23T16:28:44.102Z,4.33
2019-02-23T16:31:18.780Z,4.27
2019-02-23T16:33:54.407Z,4.21
2019-02-23T16:36:29.694Z,4.17
2019-02-23T16:39:04.503Z,4.19
2019-02-23T16:41:43.121Z,4.08
2019-02-23T16:44:17.700Z,4.06
2019-02-23T16:46:52.731Z,4.05
2019-02-23T16:49:27.797Z,4.13
2019-02-23T16:52:02.002Z,4.00
2019-02-23T16:54:36.387Z,3.87
2019-02-23T16:57:18.913Z,3.87
2019-02-23T16:59:53.404Z,3.91
2019-02-23T17:02:27.959Z,3.80
2019-02-23T17:05:04.770Z,3.81
2019-02-23T17:07:42.343Z,3.81
2019-02-23T17:10:16.677Z,3.68
2019-02-23T17:12:52.188Z,3.66
2019-02-23T17:15:28.904Z,3.64
2019-02-23T17:18:03.320Z,3.54
2019-02-23T17:20:37.170Z,3.65
2019-02-23T17:23:10.998Z,3.50
2019-02-23T17:25:46.503Z,3.57
2019-02-23T17:28:22.305Z,3.52
2019-02-23T17:30:56.543Z,3.41
2019-02-23T17:33:30.332Z,3.43
2019-02-23T17:36:04.073Z,3.41
2019-02-23T17:38:37.620Z,3.31
2019-02-23T17:41:12.664Z,3.26
2019-02-23T17:43:46.582Z,3.27
2019-02-23T17:46:20.227Z,3.22
2019-02-23T17:48:53.918Z,3.21
2019-02-23T17:51:27.556Z,3.07
2019-02-23T17:54:02.352Z,3.10
2019-02-23T17:56:35.917Z,3.10
2019-02-23T17:59:09.439Z,2.94
2019-02-23T18:01:43.345Z,2.90
2019-02-23T18:04:25.064Z,2.89
2019-02-23T18:07:01.255Z,2.85
2019-02-23T18:09:36.223Z,2.86
2019-02-23T18:12:10.441Z,2.89
2019-02-23T18:14:45.251Z,2.85
2019-02-23T18:17:18.918Z,2.75
2019-02-23T18:19:53.361Z,2.81
2019-02-23T18:22:28.334Z,2.78
2019-02-23T18:25:02.058Z,2.77
2019-02-23T18:27:35.610Z,2.85
2019-02-23T18:30:14.066Z,2.70
2019-02-23T18:32:48.148Z,2.69
2019-02-23T18:35:22.400Z,2.63
2019-02-23T18:37:56.513Z,2.59
2019-02-23T18:40:31.175Z,2.53
2019-02-23T18:43:06.142Z,2.55
2019-02-23T18:45:47.202Z,2.55
2019-02-23T18:48:15.312Z,2.32
2019-02-23T18:50:49.260Z,2.43
2019-02-23T18:53:23.918Z,2.47
2019-02-23T18:55:57.398Z,2.30
2019-02-23T18:58:33.512Z,2.27
2019-02-23T19:01:07.874Z,2.31
2019-02-23T19:03:41.680Z,2.23
2019-02-23T19:06:15.360Z,2.10
2019-02-23T19:08:49.024Z,2.03
2019-02-23T19:11:24.333Z,1.98
2019-02-23T19:13:58.258Z,1.99
2019-02-23T19:16:32.702Z,1.97
2019-02-23T19:19:06.248Z,1.93
2019-02-23T19:21:40.015Z,1.99
2019-02-23T19:24:13.649Z,1.86
2019-02-23T19:26:47.234Z,1.86
2019-02-23T19:29:21.684Z,1.81
2019-02-23T19:31:55.143Z,1.78
2019-02-23T19:34:28.845Z,1.73
2019-02-23T19:37:02.422Z,1.70
2019-02-23T19:39:36.025Z,1.71
2019-02-23T19:42:09.750Z,1.60
2019-02-23T19:44:43.719Z,1.58
2019-02-23T19:47:17.471Z,1.60
2019-02-23T19:49:52.746Z,1.61
2019-02-23T19:52:26.865Z,1.58
2019-02-23T19:55:01.707Z,1.45
2019-02-23T19:57:36.417Z,1.58
2019-02-23T20:00:11.757Z,1.49
2019-02-23T20:03:05.060Z,1.40
2019-02-23T20:05:38.860Z,1.39
2019-02-23T20:08:12.630Z,1.35
2019-02-23T20:10:47.054Z,1.32
2019-02-23T20:13:21.502Z,1.32
2019-02-23T20:15:55.917Z,1.28
2019-02-23T20:18:33.264Z,1.23
2019-02-23T20:21:07.453Z,1.30
2019-02-23T20:23:43.129Z,1.10
2019-02-23T20:26:17.164Z,1.09
2019-02-23T20:28:50.981Z,1.04
2019-02-23T20:31:26.206Z,1.06
2019-02-23T20:34:00.006Z,1.05
2019-02-23T20:36:35.032Z,0.99
2019-02-23T20:39:10.336Z,0.95
2019-02-23T20:41:44.114Z,1.00
2019-02-23T20:44:19.163Z,0.93
2019-02-23T20:46:52.903Z,0.83
2019-02-23T20:49:26.558Z,0.86
2019-02-23T20:52:06.198Z,0.77
2019-02-23T20:54:39.834Z,0.76
2019-02-23T20:57:13.937Z,0.70
2019-02-23T20:59:48.084Z,0.82
2019-02-23T21:02:27.399Z,0.81
2019-02-23T21:05:03.078Z,0.71
2019-02-23T21:07:36.688Z,0.62
2019-02-23T21:10:13.165Z,0.69
2019-02-23T21:12:48.909Z,0.61
2019-02-23T21:15:22.885Z,0.62
2019-02-23T21:17:56.659Z,0.64
2019-02-23T21:20:30.749Z,0.56
2019-02-23T21:23:04.482Z,0.60
2019-02-23T21:25:38.122Z,0.50
2019-02-23T21:28:12.717Z,0.51
2019-02-23T21:30:47.609Z,0.36
2019-02-23T21:33:22.494Z,0.34
2019-02-23T21:35:57.919Z,0.36
2019-02-23T21:38:31.696Z,0.27
2019-02-23T21:41:05.670Z,0.31
2019-02-23T21:43:40.027Z,0.19
2019-02-23T21:46:13.988Z,0.17
2019-02-23T21:48:47.673Z,0.16
2019-02-23T21:51:21.644Z,0.18
2019-02-23T21:53:57.025Z,0.22
2019-02-23T21:56:31.374Z,0.06
2019-02-23T21:59:05.241Z,0.13
2019-02-23T22:01:38.801Z,0.18
2019-02-23T22:04:13.450Z,0.17
2019-02-23T22:06:49.100Z,0.20
2019-02-23T22:09:23.111Z,0.12
2019-02-23T22:11:58.307Z,0.16
2019-02-23T22:14:32.451Z,0.26
2019-02-23T22:17:06.116Z,0.15
2019-02-23T22:19:39.917Z,0.05
2019-02-23T22:22:17.947Z,-0.01
2019-02-23T22:24:51.739Z,0.08
2019-02-23T22:27:31.124Z,0.20
2019-02-23T22:30:00.578Z,0.16
2019-02-23T22:32:35.718Z,-0.05
2019-02-23T22:35:09.461Z,-0.06
2019-02-23T22:37:43.471Z,-0.03
2019-02-23T22:40:17.308Z,-0.03
2019-02-23T22:42:51.238Z,0.03
2019-02-23T22:45:26.483Z,0.02
2019-02-23T22:48:00.241Z,-0.03
2019-02-23T22:50:35.740Z,0.05
2019-02-23T22:53:08.986Z,0.16
2019-02-23T22:55:43.494Z,0.16
2019-02-23T22:58:17.333Z,0.09
2019-02-23T23:00:51.226Z,0.22
2019-02-23T23:03:25.207Z,0.23
2019-02-23T23:05:59.196Z,0.30
2019-02-23T23:08:32.934Z,0.20
2019-02-23T23:11:06.838Z,0.14
2019-02-23T23:13:40.391Z,0.37
2019-02-23T23:16:14.250Z,0.36
2019-02-23T23:18:47.952Z,0.28
2019-02-23T23:21:22.212Z,0.34
2019-02-23T23:23:56.322Z,0.47
2019-02-23T23:26:30.088Z,0.58
2019-02-23T23:29:03.855Z,0.64
2019-02-23T23:31:37.665Z,0.71
2019-02-23T23:34:12.838Z,0.68
2019-02-23T23:36:46.480Z,0.67
2019-02-23T23:39:20.597Z,0.69
2019-02-23T23:41:55.915Z,0.79
2019-02-23T23:44:29.772Z,0.69
2019-02-23T23:47:03.547Z,0.70
2019-02-23T23:49:37.547Z,0.79
2019-02-23T23:52:11.336Z,1.03
2019-02-23T23:54:45.199Z,0.98
2019-02-23T23:57:19.092Z,0.83
2019-02-23T23:59:53.263Z,1.14
